createdAt,value
2022-11-30T00:00:30.070Z,8.90
2022-11-30T00:03:17.774Z,9.00
2022-11-30T00:06:07.601Z,9.00
2022-11-30T00:08:57.062Z,9.00
2022-11-30T00:11:44.346Z,9.10
2022-11-30T00:14:31.841Z,9.20
2022-11-30T00:17:19.267Z,9.30
2022-11-30T00:20:07.166Z,9.40
2022-11-30T00:22:56.295Z,9.50
2022-11-30T00:25:43.749Z,9.40
2022-11-30T00:28:32.921Z,9.50
2022-11-30T00:31:21.202Z,9.50
2022-11-30T00:34:08.498Z,9.50
2022-11-30T00:36:55.828Z,9.50
2022-11-30T00:39:42.945Z,9.60
2022-11-30T00:42:30.434Z,9.70
2022-11-30T00:45:17.725Z,9.70
2022-11-30T00:48:05.180Z,9.70
2022-11-30T00:50:52.531Z,9.70
2022-11-30T00:53:41.374Z,9.80
2022-11-30T00:56:28.641Z,9.80
2022-11-30T00:59:16.186Z,9.90
2022-11-30T01:02:03.670Z,9.90
2022-11-30T01:04:51.116Z,9.80
2022-11-30T01:07:38.728Z,9.70
2022-11-30T01:10:25.612Z,9.50
2022-11-30T01:13:15.981Z,9.50
2022-11-30T01:16:04.921Z,9.40
2022-11-30T01:18:52.857Z,9.40
2022-11-30T01:21:39.986Z,9.40
2022-11-30T01:24:27.325Z,9.40
2022-11-30T01:27:14.408Z,9.50
2022-11-30T01:30:02.150Z,9.60
2022-11-30T01:32:49.765Z,9.60
2022-11-30T01:35:37.129Z,9.50
2022-11-30T01:38:24.622Z,9.50
2022-11-30T01:41:15.113Z,9.50
2022-11-30T01:44:20.153Z,9.50
2022-11-30T01:47:08.598Z,9.50
2022-11-30T01:50:17.560Z,9.50
2022-11-30T01:53:05.829Z,9.50
2022-11-30T01:55:53.816Z,9.60
2022-11-30T01:58:41.190Z,9.60
2022-11-30T02:01:28.592Z,9.80
2022-11-30T02:04:27.589Z,9.80
2022-11-30T02:07:14.963Z,9.90
2022-11-30T02:10:02.056Z,9.90
2022-11-30T02:13:12.125Z,9.90
2022-11-30T02:16:08.624Z,9.90
2022-11-30T02:19:01.587Z,9.70
2022-11-30T02:22:10.277Z,9.70
2022-11-30T02:25:06.218Z,9.70
2022-11-30T02:28:22.137Z,9.80
2022-11-30T02:31:12.476Z,9.70
2022-11-30T02:34:02.505Z,9.70
2022-11-30T02:36:50.275Z,9.70
2022-11-30T02:39:37.509Z,9.70
2022-11-30T02:42:25.158Z,9.80
2022-11-30T02:45:12.993Z,9.80
2022-11-30T02:48:06.554Z,9.80
2022-11-30T02:50:57.309Z,9.90
2022-11-30T02:53:45.080Z,9.90
2022-11-30T02:56:33.208Z,9.90
2022-11-30T02:59:22.246Z,10.00
2022-11-30T03:02:09.588Z,10.00
2022-11-30T03:04:57.070Z,10.00
2022-11-30T03:07:44.534Z,10.00
2022-11-30T03:10:31.825Z,10.00
2022-11-30T03:13:19.038Z,9.90
2022-11-30T03:16:11.413Z,9.90
2022-11-30T03:18:59.234Z,9.80
2022-11-30T03:21:46.611Z,9.80
2022-11-30T03:24:33.896Z,9.80
2022-11-30T03:27:21.298Z,9.80
2022-11-30T03:30:09.238Z,9.80
2022-11-30T03:32:56.793Z,9.90
2022-11-30T03:35:44.489Z,10.00
2022-11-30T03:38:32.320Z,10.00
2022-11-30T03:41:19.952Z,10.10
2022-11-30T03:44:07.658Z,10.10
2022-11-30T03:46:54.880Z,10.20
2022-11-30T03:49:41.955Z,10.20
2022-11-30T03:52:29.656Z,10.10
2022-11-30T03:55:17.119Z,10.20
2022-11-30T03:58:04.359Z,10.20
2022-11-30T04:00:53.670Z,10.20
2022-11-30T04:03:41.753Z,10.20
2022-11-30T04:06:28.821Z,10.20
2022-11-30T04:09:16.055Z,10.00
2022-11-30T04:12:03.136Z,10.00
2022-11-30T04:14:50.346Z,9.90
2022-11-30T04:17:37.889Z,9.80
2022-11-30T04:20:25.674Z,9.80
2022-11-30T04:23:13.584Z,9.90
2022-11-30T04:26:00.870Z,10.00
2022-11-30T04:28:48.216Z,10.00
2022-11-30T04:31:35.740Z,10.10
2022-11-30T04:34:23.128Z,10.00
2022-11-30T04:37:10.020Z,9.90
2022-11-30T04:39:57.341Z,10.00
2022-11-30T04:42:44.714Z,10.00
2022-11-30T04:45:35.302Z,10.00
2022-11-30T04:48:21.916Z,10.10
2022-11-30T04:51:10.603Z,10.00
2022-11-30T04:53:58.097Z,10.00
2022-11-30T04:56:45.290Z,10.00
2022-11-30T04:59:32.560Z,10.00
2022-11-30T05:02:20.081Z,9.90
2022-11-30T05:05:08.059Z,9.80
2022-11-30T05:08:00.047Z,9.80
2022-11-30T05:10:52.960Z,9.90
2022-11-30T05:13:37.712Z,10.00
2022-11-30T05:16:25.344Z,9.90
2022-11-30T05:19:14.521Z,9.70
2022-11-30T05:22:02.134Z,9.60
2022-11-30T05:24:49.769Z,9.60
2022-11-30T05:27:37.618Z,9.60
2022-11-30T05:30:24.938Z,9.70
2022-11-30T05:33:12.226Z,9.80
2022-11-30T05:35:59.438Z,9.90
2022-11-30T05:38:46.968Z,10.00
2022-11-30T05:41:34.513Z,10.00
2022-11-30T05:44:21.631Z,10.00
2022-11-30T05:47:08.910Z,10.10
2022-11-30T05:49:56.168Z,10.00
2022-11-30T05:52:43.419Z,10.10
2022-11-30T05:55:32.461Z,10.10
2022-11-30T05:58:19.742Z,10.20
2022-11-30T06:01:07.664Z,10.20
2022-11-30T06:03:55.600Z,10.20
2022-11-30T06:06:43.145Z,10.20
2022-11-30T06:09:30.711Z,10.20
2022-11-30T06:12:18.339Z,10.20
2022-11-30T06:15:05.755Z,10.10
2022-11-30T06:17:54.826Z,10.10
2022-11-30T06:20:42.364Z,10.10
2022-11-30T06:23:30.730Z,10.10
2022-11-30T06:26:18.209Z,10.00
2022-11-30T06:29:05.443Z,10.00
2022-11-30T06:31:52.729Z,10.00
2022-11-30T06:34:40.386Z,9.80
2022-11-30T06:37:27.276Z,9.80
2022-11-30T06:40:15.373Z,9.70
2022-11-30T06:43:02.655Z,9.70
2022-11-30T06:45:49.831Z,9.80
2022-11-30T06:48:37.422Z,9.80
2022-11-30T06:51:24.753Z,9.80
2022-11-30T06:54:11.719Z,9.90
2022-11-30T06:56:59.167Z,10.00
2022-11-30T06:59:47.416Z,10.00
2022-11-30T07:02:34.867Z,10.10
2022-11-30T07:05:22.052Z,10.10
2022-11-30T07:08:09.237Z,10.20
2022-11-30T07:10:56.771Z,10.20
2022-11-30T07:13:44.052Z,10.20
2022-11-30T07:16:31.692Z,10.30
2022-11-30T07:19:19.312Z,10.30
2022-11-30T07:22:06.709Z,10.30
2022-11-30T07:25:12.142Z,10.30
2022-11-30T07:27:59.670Z,10.40
2022-11-30T07:30:46.910Z,10.30
2022-11-30T07:33:34.503Z,10.40
2022-11-30T07:36:23.444Z,10.40
2022-11-30T07:39:12.068Z,10.50
2022-11-30T07:41:59.452Z,10.50
2022-11-30T07:44:46.833Z,10.60
2022-11-30T07:47:34.016Z,10.60
2022-11-30T07:50:21.543Z,10.60
2022-11-30T07:53:09.063Z,10.60
2022-11-30T07:55:57.798Z,10.60
2022-11-30T07:58:45.496Z,10.60
2022-11-30T08:01:34.654Z,10.70
2022-11-30T08:04:22.263Z,10.60
2022-11-30T08:07:09.487Z,10.70
2022-11-30T08:09:56.897Z,10.70
2022-11-30T08:12:44.410Z,10.80
2022-11-30T08:15:33.339Z,10.90
2022-11-30T08:18:20.791Z,11.00
2022-11-30T08:21:09.898Z,11.00
2022-11-30T08:23:58.252Z,11.00
2022-11-30T08:26:45.886Z,11.00
2022-11-30T08:29:33.181Z,11.10
2022-11-30T08:32:20.707Z,11.00
2022-11-30T08:35:08.271Z,11.00
2022-11-30T08:37:55.677Z,11.10
2022-11-30T08:40:42.930Z,11.10
2022-11-30T08:43:30.265Z,11.20
2022-11-30T08:46:51.038Z,11.20
2022-11-30T08:49:25.162Z,11.20
2022-11-30T08:54:48.075Z,11.30
2022-11-30T08:57:35.417Z,11.30
2022-11-30T09:00:23.023Z,11.30
2022-11-30T09:03:10.035Z,11.30
2022-11-30T09:06:00.515Z,11.30
2022-11-30T09:08:49.836Z,11.40
2022-11-30T09:11:37.318Z,11.50
2022-11-30T09:14:24.953Z,11.50
2022-11-30T09:17:12.359Z,11.50
2022-11-30T09:19:59.764Z,11.50
2022-11-30T09:22:47.030Z,11.60
2022-11-30T09:25:34.556Z,11.60
2022-11-30T09:28:21.784Z,11.70
2022-11-30T09:31:17.527Z,11.80
2022-11-30T09:34:04.842Z,11.80
2022-11-30T09:36:52.305Z,11.80
2022-11-30T09:39:39.398Z,11.80
2022-11-30T09:42:48.179Z,11.90
2022-11-30T09:45:37.871Z,11.90
2022-11-30T09:48:33.795Z,12.00
2022-11-30T09:51:30.202Z,12.00
2022-11-30T09:54:23.827Z,12.00
2022-11-30T09:57:31.278Z,12.00
2022-11-30T10:00:21.636Z,12.00
2022-11-30T10:03:08.889Z,12.00
2022-11-30T10:06:02.596Z,12.10
2022-11-30T10:09:04.718Z,12.10
2022-11-30T10:12:06.722Z,12.10
2022-11-30T10:15:06.069Z,12.20
2022-11-30T10:18:17.359Z,12.20
2022-11-30T10:21:24.290Z,12.20
2022-11-30T10:24:23.808Z,12.20
2022-11-30T10:27:39.587Z,12.20
2022-11-30T10:30:32.758Z,12.20
2022-11-30T10:33:22.882Z,12.20
2022-11-30T10:36:13.372Z,12.10
2022-11-30T10:39:03.725Z,12.10
2022-11-30T10:42:03.373Z,12.10
2022-11-30T10:45:05.800Z,12.00
2022-11-30T10:48:17.455Z,12.00
2022-11-30T10:51:05.406Z,12.00
2022-11-30T10:53:52.543Z,11.90
2022-11-30T10:56:40.037Z,11.70
2022-11-30T10:59:46.159Z,11.80
2022-11-30T11:02:43.065Z,11.90
2022-11-30T11:05:32.589Z,12.00
2022-11-30T11:08:23.003Z,12.10
2022-11-30T11:11:34.950Z,12.00
2022-11-30T11:14:24.706Z,11.80
2022-11-30T11:17:26.063Z,11.80
2022-11-30T11:20:31.728Z,11.80
2022-11-30T11:23:24.922Z,12.00
2022-11-30T11:26:24.273Z,12.10
2022-11-30T11:29:14.391Z,12.20
2022-11-30T11:32:13.346Z,12.40
2022-11-30T11:35:01.011Z,12.50
2022-11-30T11:37:51.359Z,12.50
2022-11-30T11:40:38.847Z,12.40
2022-11-30T11:43:29.020Z,12.50
2022-11-30T11:46:16.344Z,12.50
2022-11-30T11:49:09.481Z,12.40
2022-11-30T11:52:19.008Z,12.30
2022-11-30T11:55:20.669Z,12.30
2022-11-30T11:58:11.307Z,12.40
2022-11-30T12:01:31.594Z,12.30
2022-11-30T12:04:05.261Z,12.20
2022-11-30T12:06:55.515Z,12.20
2022-11-30T12:09:46.255Z,12.10
2022-11-30T12:12:33.681Z,12.00
2022-11-30T12:15:27.054Z,12.00
2022-11-30T12:18:24.063Z,11.90
2022-11-30T12:21:17.414Z,11.90
2022-11-30T12:24:19.830Z,11.90
2022-11-30T12:27:45.213Z,11.90
2022-11-30T12:30:47.716Z,11.90
2022-11-30T12:34:03.635Z,11.90
2022-11-30T12:37:16.761Z,11.90
2022-11-30T12:40:19.085Z,12.00
2022-11-30T12:43:26.209Z,11.90
2022-11-30T12:46:24.962Z,12.00
2022-11-30T12:49:25.597Z,12.00
2022-11-30T12:52:49.461Z,12.00
2022-11-30T12:55:42.473Z,11.90
2022-11-30T12:58:44.663Z,12.00
2022-11-30T13:01:52.999Z,12.10
2022-11-30T13:04:43.615Z,11.80
2022-11-30T13:07:37.223Z,11.90
2022-11-30T13:10:27.538Z,11.90
2022-11-30T13:13:25.443Z,11.80
2022-11-30T13:16:12.854Z,11.70
2022-11-30T13:19:18.192Z,11.60
2022-11-30T13:22:08.419Z,11.60
2022-11-30T13:25:10.121Z,11.70
2022-11-30T13:28:12.214Z,11.80
2022-11-30T13:31:08.257Z,11.80
2022-11-30T13:33:58.690Z,11.80
2022-11-30T13:36:46.491Z,11.90
2022-11-30T13:39:37.084Z,11.80
2022-11-30T13:42:39.465Z,11.80
2022-11-30T13:45:36.270Z,11.80
2022-11-30T13:48:35.746Z,11.90
2022-11-30T13:51:37.440Z,11.90
2022-11-30T13:54:51.362Z,11.90
2022-11-30T13:57:41.926Z,11.90
2022-11-30T14:00:35.148Z,11.90
2022-11-30T14:03:25.297Z,11.90
2022-11-30T14:06:41.587Z,11.80
2022-11-30T14:09:45.156Z,11.70
2022-11-30T14:12:37.543Z,11.80
2022-11-30T14:15:29.725Z,11.70
2022-11-30T14:18:23.000Z,11.70
2022-11-30T14:21:19.682Z,11.80
2022-11-30T14:24:10.000Z,11.70
2022-11-30T14:26:57.436Z,11.70
2022-11-30T14:29:45.979Z,11.70
2022-11-30T14:32:42.656Z,11.60
2022-11-30T14:35:31.884Z,11.60
2022-11-30T14:38:33.155Z,11.50
2022-11-30T14:41:29.505Z,11.50
2022-11-30T14:44:17.089Z,11.50
2022-11-30T14:47:31.298Z,11.50
2022-11-30T14:50:26.864Z,11.50
2022-11-30T14:53:17.167Z,11.50
2022-11-30T14:56:07.552Z,11.50
2022-11-30T14:59:00.557Z,11.40
2022-11-30T15:01:47.728Z,11.40
2022-11-30T15:04:37.068Z,11.40
2022-11-30T15:07:25.900Z,11.40
2022-11-30T15:10:18.935Z,11.40
2022-11-30T15:13:06.878Z,11.30
2022-11-30T15:15:56.531Z,11.30
2022-11-30T15:18:43.622Z,11.30
2022-11-30T15:21:32.959Z,11.40
2022-11-30T15:24:21.126Z,11.40
2022-11-30T15:27:14.495Z,11.30
2022-11-30T15:30:02.254Z,11.30
2022-11-30T15:32:53.731Z,11.40
2022-11-30T15:36:13.871Z,11.40
2022-11-30T15:38:33.248Z,11.30
2022-11-30T15:41:24.270Z,11.20
2022-11-30T15:44:34.749Z,11.10
2022-11-30T15:47:34.334Z,11.10
2022-11-30T15:50:33.841Z,11.00
2022-11-30T15:53:30.200Z,10.90
2022-11-30T15:56:25.936Z,10.90
2022-11-30T15:59:16.410Z,10.90
2022-11-30T16:02:11.920Z,11.00
2022-11-30T16:05:14.924Z,10.90
2022-11-30T16:08:03.742Z,11.00
2022-11-30T16:10:52.615Z,10.80
2022-11-30T16:13:42.156Z,10.80
2022-11-30T16:16:32.747Z,10.80
2022-11-30T16:19:20.771Z,10.80
2022-11-30T16:22:11.368Z,10.80
2022-11-30T16:24:58.793Z,10.80
2022-11-30T16:27:47.661Z,10.80
2022-11-30T16:30:34.769Z,10.90
2022-11-30T16:33:25.663Z,10.90
2022-11-30T16:36:18.979Z,10.80
2022-11-30T16:39:06.453Z,10.80
2022-11-30T16:41:57.187Z,10.80
2022-11-30T16:44:45.772Z,10.80
2022-11-30T16:47:32.908Z,10.80
2022-11-30T16:50:21.096Z,10.70
2022-11-30T16:53:11.728Z,10.70
2022-11-30T16:55:58.599Z,10.70
2022-11-30T16:58:46.110Z,10.70
2022-11-30T17:01:36.921Z,10.70
2022-11-30T17:04:30.489Z,10.70
2022-11-30T17:07:17.835Z,10.80
2022-11-30T17:10:06.955Z,10.80
2022-11-30T17:12:55.887Z,10.80
2022-11-30T17:15:43.022Z,10.80
2022-11-30T17:18:30.572Z,10.80
2022-11-30T17:21:20.906Z,10.80
2022-11-30T17:24:08.523Z,10.80
2022-11-30T17:26:55.752Z,10.80
2022-11-30T17:29:43.570Z,10.70
2022-11-30T17:32:31.329Z,10.70
2022-11-30T17:35:19.979Z,10.70
2022-11-30T17:38:07.574Z,10.70
2022-11-30T17:40:55.774Z,10.80
2022-11-30T17:43:49.142Z,10.70
2022-11-30T17:46:38.790Z,10.70
2022-11-30T17:49:26.337Z,10.60
2022-11-30T17:52:13.812Z,10.60
2022-11-30T17:55:01.211Z,10.70
2022-11-30T17:57:48.794Z,10.70
2022-11-30T18:00:35.973Z,10.60
2022-11-30T18:03:26.475Z,10.70
2022-11-30T18:06:14.521Z,10.70
2022-11-30T18:09:01.931Z,10.70
2022-11-30T18:11:49.305Z,10.70
2022-11-30T18:14:36.554Z,10.80
2022-11-30T18:17:26.718Z,10.80
2022-11-30T18:20:14.410Z,10.70
2022-11-30T18:23:01.951Z,10.70
2022-11-30T18:25:49.566Z,10.70
2022-11-30T18:28:36.864Z,10.70
2022-11-30T18:31:28.858Z,10.70
2022-11-30T18:34:16.373Z,10.70
2022-11-30T18:37:05.368Z,10.60
2022-11-30T18:39:52.839Z,10.60
2022-11-30T18:42:40.225Z,10.50
2022-11-30T18:45:27.190Z,10.40
2022-11-30T18:48:15.698Z,10.30
2022-11-30T18:51:14.823Z,10.30
2022-11-30T18:54:04.736Z,10.30
2022-11-30T18:56:52.487Z,10.40
2022-11-30T18:59:39.811Z,10.50
2022-11-30T19:02:27.490Z,10.40
2022-11-30T19:05:23.030Z,10.40
2022-11-30T19:08:11.236Z,10.40
2022-11-30T19:11:05.438Z,10.40
2022-11-30T19:14:00.211Z,10.40
2022-11-30T19:16:47.727Z,10.50
2022-11-30T19:19:34.898Z,10.40
2022-11-30T19:22:24.917Z,10.40
2022-11-30T19:25:18.927Z,10.40
2022-11-30T19:28:03.988Z,10.40
2022-11-30T19:30:51.012Z,10.30
2022-11-30T19:33:40.082Z,10.40
2022-11-30T19:36:29.773Z,10.30
2022-11-30T19:39:16.972Z,10.20
2022-11-30T19:42:04.476Z,10.20
2022-11-30T19:44:52.360Z,10.30
2022-11-30T19:47:39.642Z,10.30
2022-11-30T19:50:27.054Z,10.30
2022-11-30T19:53:14.494Z,10.30
2022-11-30T19:56:07.516Z,10.30
2022-11-30T19:58:58.767Z,10.30
2022-11-30T20:01:45.148Z,10.20
2022-11-30T20:04:32.651Z,10.20
2022-11-30T20:07:19.889Z,10.20
2022-11-30T20:10:07.691Z,10.30
2022-11-30T20:12:57.115Z,10.40
2022-11-30T20:15:44.325Z,10.30
2022-11-30T20:18:31.449Z,10.30
2022-11-30T20:21:24.815Z,10.30
2022-11-30T20:24:12.899Z,10.30
2022-11-30T20:27:00.138Z,10.30
2022-11-30T20:29:49.253Z,10.40
2022-11-30T20:32:38.236Z,10.40
2022-11-30T20:35:25.647Z,10.40
2022-11-30T20:38:12.967Z,10.50
2022-11-30T20:41:00.589Z,10.40
2022-11-30T20:43:48.219Z,10.40
2022-11-30T20:46:36.864Z,10.40
2022-11-30T20:49:27.073Z,10.40
2022-11-30T20:52:14.655Z,10.50
2022-11-30T20:55:02.074Z,10.50
2022-11-30T20:57:49.462Z,10.60
2022-11-30T21:00:36.666Z,10.60
2022-11-30T21:03:24.109Z,10.60
2022-11-30T21:06:12.732Z,10.60
2022-11-30T21:09:00.688Z,10.60
2022-11-30T21:11:49.309Z,10.60
2022-11-30T21:14:36.986Z,10.70
2022-11-30T21:17:25.828Z,10.60
2022-11-30T21:20:12.986Z,10.60
2022-11-30T21:23:00.265Z,10.70
2022-11-30T21:25:50.369Z,10.60
2022-11-30T21:28:38.420Z,10.60
2022-11-30T21:31:25.783Z,10.70
2022-11-30T21:34:13.448Z,10.70
2022-11-30T21:37:00.947Z,10.80
2022-11-30T21:39:48.305Z,10.70
2022-11-30T21:42:35.542Z,10.70
2022-11-30T21:45:24.837Z,10.70
2022-11-30T21:48:12.046Z,10.70
2022-11-30T21:51:00.605Z,10.70
2022-11-30T21:53:50.849Z,10.60
2022-11-30T21:56:39.547Z,10.60
2022-11-30T21:59:26.982Z,10.60
2022-11-30T22:02:14.878Z,10.60
2022-11-30T22:05:02.419Z,10.70
2022-11-30T22:07:49.750Z,10.70
2022-11-30T22:10:37.191Z,10.70
2022-11-30T22:13:24.538Z,10.70
2022-11-30T22:16:17.268Z,10.70
2022-11-30T22:19:05.278Z,10.80
2022-11-30T22:21:54.198Z,10.80
2022-11-30T22:24:41.325Z,10.80
2022-11-30T22:27:28.908Z,10.80
2022-11-30T22:30:16.521Z,10.80
2022-11-30T22:33:04.115Z,10.70
2022-11-30T22:35:53.696Z,10.80
2022-11-30T22:38:41.264Z,10.70
2022-11-30T22:41:29.304Z,10.80
2022-11-30T22:44:18.579Z,10.70
2022-11-30T22:47:08.304Z,10.60
2022-11-30T22:49:55.717Z,10.70
2022-11-30T22:53:02.354Z,10.70
2022-11-30T22:55:32.869Z,10.70
2022-11-30T22:58:20.318Z,10.60
2022-11-30T23:01:19.847Z,10.60
2022-11-30T23:04:11.965Z,10.60
2022-11-30T23:06:59.983Z,10.50
2022-11-30T23:09:48.557Z,10.50
2022-11-30T23:12:58.312Z,10.50
2022-11-30T23:15:25.038Z,10.30
2022-11-30T23:18:12.304Z,10.00
2022-11-30T23:21:14.902Z,9.70
2022-11-30T23:24:13.976Z,9.80
2022-11-30T23:27:01.094Z,9.90
2022-11-30T23:29:48.860Z,10.00
2022-11-30T23:32:36.631Z,9.80
2022-11-30T23:35:25.618Z,9.70
2022-11-30T23:38:12.882Z,9.70
2022-11-30T23:41:08.735Z,9.80
2022-11-30T23:43:56.010Z,9.70
2022-11-30T23:46:43.794Z,9.60
2022-11-30T23:49:31.054Z,9.60
2022-11-30T23:52:18.281Z,9.60
2022-11-30T23:55:06.095Z,9.60
2022-11-30T23:57:56.281Z,9.60
